sensor_id;sensor_type;location;lat;lon;timestamp;P1;durP1;ratioP1;P2;durP2;ratioP2
63114;SDS011;49208;50.874;6.466;2023-07-09T06:01:09;11.40;;;6.30;;
63114;SDS011;49208;50.874;6.466;2023-07-09T06:03:34;11.73;;;6.60;;
63114;SDS011;49208;50.874;6.466;2023-07-09T06:05:59;11.10;;;7.03;;
63114;SDS011;49208;50.874;6.466;2023-07-09T06:08:25;14.63;;;6.63;;
63114;SDS011;49208;50.874;6.466;2023-07-09T06:11:09;12.07;;;6.50;;
63114;SDS011;49208;50.874;6.466;2023-07-09T06:13:35;9.00;;;6.30;;
63114;SDS011;49208;50.874;6.466;2023-07-09T06:16:00;13.50;;;7.07;;
63114;SDS011;49208;50.874;6.466;2023-07-09T06:18:26;10.90;;;6.73;;
63114;SDS011;49208;50.874;6.466;2023-07-09T06:20:56;12.18;;;6.13;;
63114;SDS011;49208;50.874;6.466;2023-07-09T06:23:24;10.52;;;5.30;;
63114;SDS011;49208;50.874;6.466;2023-07-09T06:25:49;13.20;;;6.22;;
63114;SDS011;49208;50.874;6.466;2023-07-09T06:28:16;12.32;;;6.47;;
63114;SDS011;49208;50.874;6.466;2023-07-09T06:30:43;12.48;;;6.20;;
63114;SDS011;49208;50.874;6.466;2023-07-09T06:33:10;11.13;;;6.20;;
63114;SDS011;49208;50.874;6.466;2023-07-09T06:35:37;10.38;;;6.18;;
63114;SDS011;49208;50.874;6.466;2023-07-09T06:38:03;15.23;;;6.75;;
63114;SDS011;49208;50.874;6.466;2023-07-09T06:40:28;13.57;;;6.90;;
63114;SDS011;49208;50.874;6.466;2023-07-09T06:42:54;12.75;;;6.63;;
63114;SDS011;49208;50.874;6.466;2023-07-09T06:45:19;15.40;;;6.10;;
63114;SDS011;49208;50.874;6.466;2023-07-09T06:47:45;14.98;;;6.93;;
63114;SDS011;49208;50.874;6.466;2023-07-09T06:50:11;13.23;;;6.88;;
63114;SDS011;49208;50.874;6.466;2023-07-09T06:52:37;17.42;;;7.05;;
63114;SDS011;49208;50.874;6.466;2023-07-09T06:55:03;16.40;;;6.87;;
63114;SDS011;49208;50.874;6.466;2023-07-09T06:57:28;14.35;;;6.80;;
63114;SDS011;49208;50.874;6.466;2023-07-09T06:59:53;14.03;;;6.47;;
63114;SDS011;49208;50.874;6.466;2023-07-09T07:02:19;10.77;;;6.40;;
63114;SDS011;49208;50.874;6.466;2023-07-09T07:04:45;17.87;;;6.03;;
63114;SDS011;49208;50.874;6.466;2023-07-09T07:07:10;13.67;;;6.00;;
63114;SDS011;49208;50.874;6.466;2023-07-09T07:09:35;11.50;;;6.23;;
63114;SDS011;49208;50.874;6.466;2023-07-09T07:12:01;11.17;;;5.27;;
63114;SDS011;49208;50.874;6.466;2023-07-09T07:14:26;13.77;;;6.23;;
63114;SDS011;49208;50.874;6.466;2023-07-09T07:16:51;10.97;;;5.20;;
63114;SDS011;49208;50.874;6.466;2023-07-09T07:19:17;13.63;;;6.23;;
63114;SDS011;49208;50.874;6.466;2023-07-09T07:21:42;11.77;;;6.33;;
63114;SDS011;49208;50.874;6.466;2023-07-09T07:24:07;12.53;;;5.23;;
63114;SDS011;49208;50.874;6.466;2023-07-09T07:26:33;11.63;;;6.43;;
63114;SDS011;49208;50.874;6.466;2023-07-09T07:28:58;10.00;;;5.95;;
63114;SDS011;49208;50.874;6.466;2023-07-09T07:31:24;17.10;;;7.03;;
63114;SDS011;49208;50.874;6.466;2023-07-09T07:33:49;10.03;;;5.43;;
63114;SDS011;49208;50.874;6.466;2023-07-09T07:36:16;9.32;;;6.22;;
63114;SDS011;49208;50.874;6.466;2023-07-09T07:38:41;13.03;;;6.20;;
63114;SDS011;49208;50.874;6.466;2023-07-09T07:41:07;11.30;;;5.83;;
63114;SDS011;49208;50.874;6.466;2023-07-09T07:43:32;7.38;;;4.75;;
63114;SDS011;49208;50.874;6.466;2023-07-09T07:45:58;8.30;;;5.63;;
63114;SDS011;49208;50.874;6.466;2023-07-09T07:48:23;12.50;;;5.70;;
63114;SDS011;49208;50.874;6.466;2023-07-09T07:50:49;11.33;;;5.57;;
63114;SDS011;49208;50.874;6.466;2023-07-09T07:53:14;10.27;;;5.77;;
63114;SDS011;49208;50.874;6.466;2023-07-09T07:55:40;9.48;;;5.78;;
63114;SDS011;49208;50.874;6.466;2023-07-09T07:58:11;8.70;;;5.55;;
63114;SDS011;49208;50.874;6.466;2023-07-09T08:00:38;9.45;;;5.65;;
63114;SDS011;49208;50.874;6.466;2023-07-09T08:07:55;8.87;;;5.63;;
63114;SDS011;49208;50.874;6.466;2023-07-09T08:10:20;11.47;;;5.27;;
63114;SDS011;49208;50.874;6.466;2023-07-09T08:12:46;8.00;;;5.83;;
63114;SDS011;49208;50.874;6.466;2023-07-09T08:15:11;10.00;;;5.80;;
63114;SDS011;49208;50.874;6.466;2023-07-09T08:17:37;16.47;;;5.50;;
63114;SDS011;49208;50.874;6.466;2023-07-09T08:20:02;13.23;;;5.53;;
63114;SDS011;49208;50.874;6.466;2023-07-09T08:22:28;10.17;;;5.60;;
63114;SDS011;49208;50.874;6.466;2023-07-09T08:24:53;11.20;;;6.00;;
63114;SDS011;49208;50.874;6.466;2023-07-09T08:27:19;11.97;;;6.30;;
63114;SDS011;49208;50.874;6.466;2023-07-09T08:29:44;14.75;;;6.97;;
63114;SDS011;49208;50.874;6.466;2023-07-09T08:32:11;13.55;;;5.78;;
63114;SDS011;49208;50.874;6.466;2023-07-09T08:47:08;9.13;;;5.57;;
63114;SDS011;49208;50.874;6.466;2023-07-09T08:49:45;12.85;;;5.00;;
63114;SDS011;49208;50.874;6.466;2023-07-09T08:52:24;10.98;;;5.03;;
63114;SDS011;49208;50.874;6.466;2023-07-09T08:54:55;9.23;;;5.20;;
63114;SDS011;49208;50.874;6.466;2023-07-09T08:57:27;12.25;;;5.93;;
63114;SDS011;49208;50.874;6.466;2023-07-09T09:00:07;8.40;;;5.22;;
63114;SDS011;49208;50.874;6.466;2023-07-09T09:02:43;14.10;;;5.60;;
63114;SDS011;49208;50.874;6.466;2023-07-09T09:05:09;9.07;;;5.43;;
63114;SDS011;49208;50.874;6.466;2023-07-09T09:07:43;10.65;;;5.43;;
63114;SDS011;49208;50.874;6.466;2023-07-09T09:10:17;11.57;;;5.35;;
63114;SDS011;49208;50.874;6.466;2023-07-09T09:13:03;12.85;;;5.53;;
63114;SDS011;49208;50.874;6.466;2023-07-09T09:15:36;13.20;;;5.68;;
63114;SDS011;49208;50.874;6.466;2023-07-09T09:18:14;15.90;;;5.47;;
63114;SDS011;49208;50.874;6.466;2023-07-09T09:20:46;14.82;;;4.78;;
63114;SDS011;49208;50.874;6.466;2023-07-09T09:23:14;9.75;;;5.22;;
63114;SDS011;49208;50.874;6.466;2023-07-09T09:25:51;8.60;;;4.95;;
63114;SDS011;49208;50.874;6.466;2023-07-09T09:28:19;11.15;;;5.00;;
63114;SDS011;49208;50.874;6.466;2023-07-09T09:30:44;7.85;;;4.30;;
63114;SDS011;49208;50.874;6.466;2023-07-09T09:33:10;5.33;;;3.40;;
63114;SDS011;49208;50.874;6.466;2023-07-09T09:35:40;5.88;;;3.28;;
63114;SDS011;49208;50.874;6.466;2023-07-09T09:38:09;7.35;;;3.88;;
63114;SDS011;49208;50.874;6.466;2023-07-09T09:40:41;6.47;;;3.60;;
63114;SDS011;49208;50.874;6.466;2023-07-09T09:43:15;6.60;;;4.00;;
63114;SDS011;49208;50.874;6.466;2023-07-09T09:45:47;7.30;;;3.20;;
63114;SDS011;49208;50.874;6.466;2023-07-09T09:50:59;7.05;;;3.53;;
63114;SDS011;49208;50.874;6.466;2023-07-09T09:53:29;7.85;;;3.83;;
63114;SDS011;49208;50.874;6.466;2023-07-09T09:56:04;8.27;;;3.92;;
63114;SDS011;49208;50.874;6.466;2023-07-09T09:58:31;7.40;;;3.75;;
63114;SDS011;49208;50.874;6.466;2023-07-09T10:00:57;6.78;;;3.80;;
63114;SDS011;49208;50.874;6.466;2023-07-09T10:03:35;6.78;;;3.33;;
63114;SDS011;49208;50.874;6.466;2023-07-09T10:06:12;5.93;;;2.88;;
63114;SDS011;49208;50.874;6.466;2023-07-09T10:14:32;6.35;;;3.03;;
63114;SDS011;49208;50.874;6.466;2023-07-09T10:17:22;7.45;;;3.38;;
63114;SDS011;49208;50.874;6.466;2023-07-09T10:26:09;7.18;;;3.20;;
63114;SDS011;49208;50.874;6.466;2023-07-09T10:28:52;7.07;;;3.42;;
63114;SDS011;49208;50.874;6.466;2023-07-09T10:31:42;7.32;;;3.60;;
63114;SDS011;49208;50.874;6.466;2023-07-09T10:34:25;8.38;;;3.92;;
63114;SDS011;49208;50.874;6.466;2023-07-09T10:37:08;7.32;;;3.83;;
63114;SDS011;49208;50.874;6.466;2023-07-09T10:39:49;6.65;;;3.47;;
63114;SDS011;49208;50.874;6.466;2023-07-09T10:42:22;5.25;;;3.33;;
63114;SDS011;49208;50.874;6.466;2023-07-09T10:44:51;6.75;;;2.80;;
63114;SDS011;49208;50.874;6.466;2023-07-09T10:47:31;8.30;;;3.60;;
63114;SDS011;49208;50.874;6.466;2023-07-09T10:50:00;6.97;;;3.13;;
63114;SDS011;49208;50.874;6.466;2023-07-09T10:52:30;6.22;;;3.08;;
63114;SDS011;49208;50.874;6.466;2023-07-09T10:55:03;8.43;;;3.00;;
63114;SDS011;49208;50.874;6.466;2023-07-09T10:57:51;5.67;;;2.60;;
63114;SDS011;49208;50.874;6.466;2023-07-09T11:00:44;6.05;;;3.22;;
63114;SDS011;49208;50.874;6.466;2023-07-09T11:03:16;4.97;;;2.92;;
63114;SDS011;49208;50.874;6.466;2023-07-09T11:05:46;7.00;;;3.15;;
63114;SDS011;49208;50.874;6.466;2023-07-09T11:08:25;5.97;;;2.78;;
63114;SDS011;49208;50.874;6.466;2023-07-09T11:10:59;6.97;;;3.03;;
63114;SDS011;49208;50.874;6.466;2023-07-09T11:13:33;6.03;;;2.88;;
63114;SDS011;49208;50.874;6.466;2023-07-09T11:16:04;6.65;;;2.78;;
63114;SDS011;49208;50.874;6.466;2023-07-09T11:18:32;6.95;;;3.15;;
63114;SDS011;49208;50.874;6.466;2023-07-09T11:21:00;6.35;;;3.22;;
63114;SDS011;49208;50.874;6.466;2023-07-09T11:23:26;7.57;;;3.22;;
63114;SDS011;49208;50.874;6.466;2023-07-09T11:26:10;6.13;;;3.40;;
63114;SDS011;49208;50.874;6.466;2023-07-09T11:28:47;6.72;;;3.58;;
63114;SDS011;49208;50.874;6.466;2023-07-09T11:31:20;9.82;;;3.53;;
63114;SDS011;49208;50.874;6.466;2023-07-09T11:33:59;7.13;;;3.78;;
63114;SDS011;49208;50.874;6.466;2023-07-09T11:36:56;6.05;;;3.03;;
63114;SDS011;49208;50.874;6.466;2023-07-09T11:39:27;6.75;;;3.28;;
63114;SDS011;49208;50.874;6.466;2023-07-09T11:41:55;11.82;;;3.65;;
63114;SDS011;49208;50.874;6.466;2023-07-09T11:44:23;6.70;;;3.20;;
63114;SDS011;49208;50.874;6.466;2023-07-09T11:52:39;6.82;;;3.70;;
63114;SDS011;49208;50.874;6.466;2023-07-09T11:55:20;6.00;;;3.05;;
63114;SDS011;49208;50.874;6.466;2023-07-09T11:57:56;5.97;;;3.45;;
63114;SDS011;49208;50.874;6.466;2023-07-09T12:00:22;7.18;;;3.00;;
63114;SDS011;49208;50.874;6.466;2023-07-09T12:02:48;6.45;;;2.92;;
63114;SDS011;49208;50.874;6.466;2023-07-09T12:05:17;6.65;;;3.03;;
63114;SDS011;49208;50.874;6.466;2023-07-09T12:07:45;6.53;;;3.60;;
63114;SDS011;49208;50.874;6.466;2023-07-09T12:10:16;7.72;;;3.30;;
63114;SDS011;49208;50.874;6.466;2023-07-09T12:12:44;8.35;;;3.67;;
63114;SDS011;49208;50.874;6.466;2023-07-09T12:15:21;6.83;;;3.40;;
63114;SDS011;49208;50.874;6.466;2023-07-09T12:17:56;8.48;;;3.60;;
63114;SDS011;49208;50.874;6.466;2023-07-09T12:20:23;7.47;;;3.75;;
63114;SDS011;49208;50.874;6.466;2023-07-09T12:25:22;7.13;;;3.57;;
63114;SDS011;49208;50.874;6.466;2023-07-09T12:27:49;7.75;;;3.72;;
63114;SDS011;49208;50.874;6.466;2023-07-09T12:30:15;8.93;;;4.47;;
63114;SDS011;49208;50.874;6.466;2023-07-09T12:32:48;6.25;;;3.50;;
63114;SDS011;49208;50.874;6.466;2023-07-09T12:35:15;7.03;;;4.22;;
63114;SDS011;49208;50.874;6.466;2023-07-09T12:37:42;6.22;;;3.83;;
63114;SDS011;49208;50.874;6.466;2023-07-09T12:40:30;6.40;;;3.80;;
63114;SDS011;49208;50.874;6.466;2023-07-09T12:43:00;6.43;;;3.78;;
63114;SDS011;49208;50.874;6.466;2023-07-09T12:45:27;8.70;;;3.33;;
63114;SDS011;49208;50.874;6.466;2023-07-09T12:47:52;8.55;;;3.70;;
63114;SDS011;49208;50.874;6.466;2023-07-09T12:50:21;7.55;;;3.60;;
63114;SDS011;49208;50.874;6.466;2023-07-09T12:52:54;5.35;;;3.65;;
63114;SDS011;49208;50.874;6.466;2023-07-09T12:55:23;6.53;;;3.45;;
63114;SDS011;49208;50.874;6.466;2023-07-09T12:57:50;10.13;;;3.83;;
63114;SDS011;49208;50.874;6.466;2023-07-09T13:02:42;7.03;;;3.67;;
63114;SDS011;49208;50.874;6.466;2023-07-09T13:05:18;7.85;;;4.35;;
63114;SDS011;49208;50.874;6.466;2023-07-09T13:07:47;7.78;;;4.07;;
63114;SDS011;49208;50.874;6.466;2023-07-09T13:10:17;12.82;;;4.93;;
63114;SDS011;49208;50.874;6.466;2023-07-09T13:12:52;7.28;;;3.70;;
63114;SDS011;49208;50.874;6.466;2023-07-09T13:18:13;10.77;;;4.60;;
63114;SDS011;49208;50.874;6.466;2023-07-09T13:20:40;6.97;;;3.72;;
63114;SDS011;49208;50.874;6.466;2023-07-09T13:23:11;7.05;;;3.90;;
63114;SDS011;49208;50.874;6.466;2023-07-09T13:25:38;6.38;;;3.70;;
63114;SDS011;49208;50.874;6.466;2023-07-09T13:28:04;7.55;;;4.40;;
63114;SDS011;49208;50.874;6.466;2023-07-09T13:30:29;6.07;;;3.13;;
63114;SDS011;49208;50.874;6.466;2023-07-09T13:32:56;6.15;;;3.35;;
63114;SDS011;49208;50.874;6.466;2023-07-09T13:35:22;6.00;;;3.40;;
63114;SDS011;49208;50.874;6.466;2023-07-09T13:37:47;5.97;;;3.40;;
63114;SDS011;49208;50.874;6.466;2023-07-09T13:40:14;9.50;;;3.50;;
63114;SDS011;49208;50.874;6.466;2023-07-09T13:42:41;6.00;;;4.00;;
63114;SDS011;49208;50.874;6.466;2023-07-09T13:45:28;7.28;;;3.30;;
63114;SDS011;49208;50.874;6.466;2023-07-09T13:47:53;5.80;;;3.53;;
63114;SDS011;49208;50.874;6.466;2023-07-09T13:50:19;8.13;;;4.10;;
63114;SDS011;49208;50.874;6.466;2023-07-09T13:52:44;11.98;;;5.40;;
63114;SDS011;49208;50.874;6.466;2023-07-09T13:55:22;8.77;;;4.50;;
63114;SDS011;49208;50.874;6.466;2023-07-09T13:57:50;8.02;;;3.70;;
63114;SDS011;49208;50.874;6.466;2023-07-09T14:00:16;7.10;;;3.67;;
63114;SDS011;49208;50.874;6.466;2023-07-09T14:02:42;8.75;;;3.70;;
63114;SDS011;49208;50.874;6.466;2023-07-09T14:07:36;9.32;;;3.80;;
63114;SDS011;49208;50.874;6.466;2023-07-09T14:10:06;13.05;;;4.18;;
63114;SDS011;49208;50.874;6.466;2023-07-09T14:12:46;9.65;;;5.47;;
63114;SDS011;49208;50.874;6.466;2023-07-09T14:15:14;11.32;;;5.43;;
63114;SDS011;49208;50.874;6.466;2023-07-09T14:17:41;13.05;;;7.10;;
63114;SDS011;49208;50.874;6.466;2023-07-09T14:20:17;13.05;;;6.57;;
63114;SDS011;49208;50.874;6.466;2023-07-09T14:22:43;13.18;;;6.78;;
63114;SDS011;49208;50.874;6.466;2023-07-09T14:25:14;12.85;;;6.47;;
63114;SDS011;49208;50.874;6.466;2023-07-09T14:27:50;11.35;;;6.80;;
63114;SDS011;49208;50.874;6.466;2023-07-09T14:30:17;16.08;;;8.00;;
63114;SDS011;49208;50.874;6.466;2023-07-09T14:32:46;13.65;;;7.40;;
63114;SDS011;49208;50.874;6.466;2023-07-09T14:35:15;13.35;;;7.65;;
63114;SDS011;49208;50.874;6.466;2023-07-09T14:37:43;12.90;;;8.32;;
63114;SDS011;49208;50.874;6.466;2023-07-09T14:40:10;13.60;;;6.75;;
63114;SDS011;49208;50.874;6.466;2023-07-09T14:42:37;12.95;;;8.05;;
63114;SDS011;49208;50.874;6.466;2023-07-09T14:45:04;11.77;;;7.32;;
63114;SDS011;49208;50.874;6.466;2023-07-09T14:47:41;15.02;;;8.55;;
63114;SDS011;49208;50.874;6.466;2023-07-09T14:50:07;11.05;;;7.63;;
63114;SDS011;49208;50.874;6.466;2023-07-09T14:52:32;14.80;;;8.67;;
63114;SDS011;49208;50.874;6.466;2023-07-09T14:54:57;12.60;;;11.30;;
63114;SDS011;49208;50.874;6.466;2023-07-09T14:57:24;14.05;;;11.55;;
63114;SDS011;49208;50.874;6.466;2023-07-09T14:59:52;22.13;;;14.82;;
63114;SDS011;49208;50.874;6.466;2023-07-09T15:02:32;18.00;;;13.40;;
63114;SDS011;49208;50.874;6.466;2023-07-09T15:05:00;21.48;;;15.60;;
63114;SDS011;49208;50.874;6.466;2023-07-09T15:07:27;20.05;;;15.15;;
63114;SDS011;49208;50.874;6.466;2023-07-09T15:09:55;20.00;;;16.67;;
63114;SDS011;49208;50.874;6.466;2023-07-09T15:12:25;17.35;;;13.50;;
63114;SDS011;49208;50.874;6.466;2023-07-09T15:14:55;16.60;;;13.52;;
63114;SDS011;49208;50.874;6.466;2023-07-09T15:17:36;19.45;;;15.13;;
63114;SDS011;49208;50.874;6.466;2023-07-09T15:20:02;18.38;;;14.32;;
63114;SDS011;49208;50.874;6.466;2023-07-09T15:22:30;17.13;;;14.43;;
63114;SDS011;49208;50.874;6.466;2023-07-09T15:24:58;16.70;;;12.02;;
63114;SDS011;49208;50.874;6.466;2023-07-09T15:27:23;14.98;;;12.45;;
63114;SDS011;49208;50.874;6.466;2023-07-09T15:29:49;18.52;;;13.48;;
63114;SDS011;49208;50.874;6.466;2023-07-09T15:32:15;12.03;;;9.73;;
63114;SDS011;49208;50.874;6.466;2023-07-09T15:34:40;18.63;;;14.18;;
63114;SDS011;49208;50.874;6.466;2023-07-09T15:37:14;15.50;;;11.82;;
63114;SDS011;49208;50.874;6.466;2023-07-09T15:39:42;15.75;;;12.80;;
63114;SDS011;49208;50.874;6.466;2023-07-09T15:42:12;14.43;;;12.20;;
63114;SDS011;49208;50.874;6.466;2023-07-09T15:44:38;14.05;;;11.18;;
63114;SDS011;49208;50.874;6.466;2023-07-09T15:47:04;16.20;;;13.30;;
63114;SDS011;49208;50.874;6.466;2023-07-09T15:49:31;17.73;;;13.52;;
63114;SDS011;49208;50.874;6.466;2023-07-09T15:51:57;22.90;;;16.77;;
63114;SDS011;49208;50.874;6.466;2023-07-09T15:54:23;30.00;;;23.13;;
63114;SDS011;49208;50.874;6.466;2023-07-09T15:56:50;18.35;;;13.85;;
63114;SDS011;49208;50.874;6.466;2023-07-09T16:01:52;15.75;;;12.18;;
63114;SDS011;49208;50.874;6.466;2023-07-09T16:04:17;13.13;;;10.50;;
63114;SDS011;49208;50.874;6.466;2023-07-09T16:06:42;12.05;;;9.18;;
63114;SDS011;49208;50.874;6.466;2023-07-09T16:09:08;12.82;;;8.70;;
63114;SDS011;49208;50.874;6.466;2023-07-09T16:11:34;11.40;;;8.63;;
63114;SDS011;49208;50.874;6.466;2023-07-09T16:14:02;12.55;;;9.65;;
63114;SDS011;49208;50.874;6.466;2023-07-09T16:16:39;10.30;;;7.70;;
63114;SDS011;49208;50.874;6.466;2023-07-09T16:19:04;12.03;;;8.83;;
63114;SDS011;49208;50.874;6.466;2023-07-09T16:21:30;11.50;;;8.15;;
63114;SDS011;49208;50.874;6.466;2023-07-09T16:23:57;10.27;;;7.38;;
63114;SDS011;49208;50.874;6.466;2023-07-09T16:26:25;12.25;;;8.45;;
63114;SDS011;49208;50.874;6.466;2023-07-09T16:28:51;10.83;;;6.63;;
63114;SDS011;49208;50.874;6.466;2023-07-09T16:31:16;12.38;;;7.63;;
63114;SDS011;49208;50.874;6.466;2023-07-09T16:33:42;11.30;;;7.45;;
63114;SDS011;49208;50.874;6.466;2023-07-09T16:36:14;13.30;;;8.07;;
63114;SDS011;49208;50.874;6.466;2023-07-09T16:38:41;11.23;;;8.85;;
63114;SDS011;49208;50.874;6.466;2023-07-09T16:41:09;10.97;;;8.40;;
63114;SDS011;49208;50.874;6.466;2023-07-09T16:43:37;12.48;;;8.38;;
63114;SDS011;49208;50.874;6.466;2023-07-09T16:46:08;10.67;;;9.17;;
63114;SDS011;49208;50.874;6.466;2023-07-09T16:48:39;10.70;;;7.97;;
63114;SDS011;49208;50.874;6.466;2023-07-09T16:51:04;11.50;;;8.48;;
63114;SDS011;49208;50.874;6.466;2023-07-09T16:53:30;11.13;;;8.75;;
63114;SDS011;49208;50.874;6.466;2023-07-09T16:55:55;13.03;;;9.87;;
63114;SDS011;49208;50.874;6.466;2023-07-09T17:00:57;12.07;;;9.82;;
63114;SDS011;49208;50.874;6.466;2023-07-09T17:03:23;14.00;;;10.23;;
63114;SDS011;49208;50.874;6.466;2023-07-09T17:05:48;12.40;;;7.90;;
63114;SDS011;49208;50.874;6.466;2023-07-09T17:08:14;14.13;;;8.32;;
63114;SDS011;49208;50.874;6.466;2023-07-09T17:10:40;11.63;;;8.85;;
63114;SDS011;49208;50.874;6.466;2023-07-09T17:13:28;15.70;;;9.70;;
63114;SDS011;49208;50.874;6.466;2023-07-09T17:15:52;12.63;;;8.70;;
63114;SDS011;49208;50.874;6.466;2023-07-09T17:18:19;13.10;;;10.27;;
63114;SDS011;49208;50.874;6.466;2023-07-09T17:20:47;12.73;;;9.10;;
63114;SDS011;49208;50.874;6.466;2023-07-09T17:23:14;15.43;;;9.52;;
63114;SDS011;49208;50.874;6.466;2023-07-09T17:25:40;12.43;;;8.27;;
63114;SDS011;49208;50.874;6.466;2023-07-09T17:30:37;10.95;;;8.32;;
63114;SDS011;49208;50.874;6.466;2023-07-09T17:33:02;10.23;;;7.03;;
63114;SDS011;49208;50.874;6.466;2023-07-09T17:35:28;12.47;;;8.17;;
63114;SDS011;49208;50.874;6.466;2023-07-09T17:37:54;9.77;;;6.63;;
63114;SDS011;49208;50.874;6.466;2023-07-09T17:40:33;10.75;;;6.40;;
63114;SDS011;49208;50.874;6.466;2023-07-09T17:43:01;10.35;;;7.40;;
63114;SDS011;49208;50.874;6.466;2023-07-09T17:45:29;10.18;;;7.13;;
63114;SDS011;49208;50.874;6.466;2023-07-09T17:47:54;11.13;;;7.47;;
63114;SDS011;49208;50.874;6.466;2023-07-09T17:50:21;9.85;;;6.43;;
63114;SDS011;49208;50.874;6.466;2023-07-09T17:52:50;13.57;;;7.82;;
63114;SDS011;49208;50.874;6.466;2023-07-09T17:55:17;10.80;;;7.13;;
63114;SDS011;49208;50.874;6.466;2023-07-09T17:57:44;9.55;;;7.15;;
63114;SDS011;49208;50.874;6.466;2023-07-09T18:00:18;10.60;;;7.10;;
63114;SDS011;49208;50.874;6.466;2023-07-09T18:02:50;12.60;;;8.63;;
63114;SDS011;49208;50.874;6.466;2023-07-09T18:05:22;11.13;;;7.45;;
63114;SDS011;49208;50.874;6.466;2023-07-09T18:07:52;8.65;;;6.30;;
63114;SDS011;49208;50.874;6.466;2023-07-09T18:10:18;9.63;;;6.57;;
63114;SDS011;49208;50.874;6.466;2023-07-09T18:12:44;10.13;;;7.47;;
63114;SDS011;49208;50.874;6.466;2023-07-09T18:15:14;12.10;;;8.02;;
63114;SDS011;49208;50.874;6.466;2023-07-09T18:17:43;9.82;;;6.50;;
63114;SDS011;49208;50.874;6.466;2023-07-09T18:20:19;9.85;;;6.82;;
63114;SDS011;49208;50.874;6.466;2023-07-09T18:25:12;10.67;;;7.93;;
63114;SDS011;49208;50.874;6.466;2023-07-09T18:27:39;10.37;;;7.70;;
63114;SDS011;49208;50.874;6.466;2023-07-09T18:30:14;12.38;;;8.40;;
63114;SDS011;49208;50.874;6.466;2023-07-09T18:32:44;12.30;;;8.20;;
63114;SDS011;49208;50.874;6.466;2023-07-09T18:38:08;11.98;;;8.73;;
63114;SDS011;49208;50.874;6.466;2023-07-09T18:43:10;11.13;;;7.25;;
63114;SDS011;49208;50.874;6.466;2023-07-09T18:45:37;10.73;;;6.93;;
63114;SDS011;49208;50.874;6.466;2023-07-09T18:48:16;10.73;;;8.07;;
63114;SDS011;49208;50.874;6.466;2023-07-09T18:50:46;9.15;;;6.97;;
63114;SDS011;49208;50.874;6.466;2023-07-09T18:53:12;11.53;;;8.37;;
63114;SDS011;49208;50.874;6.466;2023-07-09T18:55:39;12.73;;;8.57;;
63114;SDS011;49208;50.874;6.466;2023-07-09T18:58:09;10.07;;;7.43;;
63114;SDS011;49208;50.874;6.466;2023-07-09T19:00:36;10.73;;;7.72;;
63114;SDS011;49208;50.874;6.466;2023-07-09T19:03:02;11.35;;;8.20;;
63114;SDS011;49208;50.874;6.466;2023-07-09T19:05:28;10.35;;;9.10;;
63114;SDS011;49208;50.874;6.466;2023-07-09T19:07:54;9.85;;;7.07;;
63114;SDS011;49208;50.874;6.466;2023-07-09T19:10:23;10.98;;;8.57;;
63114;SDS011;49208;50.874;6.466;2023-07-09T19:12:53;8.52;;;6.88;;
63114;SDS011;49208;50.874;6.466;2023-07-09T19:15:23;12.10;;;8.65;;
63114;SDS011;49208;50.874;6.466;2023-07-09T19:17:50;10.20;;;7.43;;
63114;SDS011;49208;50.874;6.466;2023-07-09T19:20:20;13.75;;;9.88;;
63114;SDS011;49208;50.874;6.466;2023-07-09T19:22:48;11.15;;;8.93;;
63114;SDS011;49208;50.874;6.466;2023-07-09T19:25:17;13.23;;;9.02;;
63114;SDS011;49208;50.874;6.466;2023-07-09T19:27:44;9.82;;;7.30;;
63114;SDS011;49208;50.874;6.466;2023-07-09T19:30:10;10.25;;;8.13;;
63114;SDS011;49208;50.874;6.466;2023-07-09T19:32:37;13.15;;;8.40;;
63114;SDS011;49208;50.874;6.466;2023-07-09T19:35:03;11.40;;;8.23;;
63114;SDS011;49208;50.874;6.466;2023-07-09T19:37:29;12.68;;;8.80;;
63114;SDS011;49208;50.874;6.466;2023-07-09T19:39:55;12.63;;;9.93;;
63114;SDS011;49208;50.874;6.466;2023-07-09T19:42:22;15.07;;;10.35;;
63114;SDS011;49208;50.874;6.466;2023-07-09T19:44:49;12.60;;;8.68;;
63114;SDS011;49208;50.874;6.466;2023-07-09T19:47:34;11.77;;;8.68;;
63114;SDS011;49208;50.874;6.466;2023-07-09T19:50:00;13.05;;;9.73;;
63114;SDS011;49208;50.874;6.466;2023-07-09T19:52:33;12.40;;;9.55;;
63114;SDS011;49208;50.874;6.466;2023-07-09T19:54:59;17.63;;;10.75;;
63114;SDS011;49208;50.874;6.466;2023-07-09T19:57:39;10.68;;;9.13;;
63114;SDS011;49208;50.874;6.466;2023-07-09T20:00:04;13.52;;;10.73;;
63114;SDS011;49208;50.874;6.466;2023-07-09T20:02:33;12.93;;;8.60;;
63114;SDS011;49208;50.874;6.466;2023-07-09T20:04:59;14.45;;;10.88;;
63114;SDS011;49208;50.874;6.466;2023-07-09T20:07:26;11.65;;;8.65;;
63114;SDS011;49208;50.874;6.466;2023-07-09T20:09:51;13.88;;;10.82;;
63114;SDS011;49208;50.874;6.466;2023-07-09T20:12:19;16.45;;;12.45;;
63114;SDS011;49208;50.874;6.466;2023-07-09T20:14:47;19.65;;;12.25;;
63114;SDS011;49208;50.874;6.466;2023-07-09T20:17:13;13.80;;;10.80;;
63114;SDS011;49208;50.874;6.466;2023-07-09T20:22:08;14.82;;;11.77;;
63114;SDS011;49208;50.874;6.466;2023-07-09T20:24:36;11.75;;;9.02;;
63114;SDS011;49208;50.874;6.466;2023-07-09T20:27:02;13.85;;;10.57;;
63114;SDS011;49208;50.874;6.466;2023-07-09T20:29:32;16.58;;;12.30;;
63114;SDS011;49208;50.874;6.466;2023-07-09T20:31:58;18.48;;;12.23;;
63114;SDS011;49208;50.874;6.466;2023-07-09T20:34:23;15.65;;;12.43;;
63114;SDS011;49208;50.874;6.466;2023-07-09T20:36:50;17.85;;;13.55;;
63114;SDS011;49208;50.874;6.466;2023-07-09T20:39:20;20.55;;;13.55;;
63114;SDS011;49208;50.874;6.466;2023-07-09T20:41:48;15.25;;;10.55;;
63114;SDS011;49208;50.874;6.466;2023-07-09T20:44:23;17.05;;;11.25;;
63114;SDS011;49208;50.874;6.466;2023-07-09T20:46:51;18.25;;;12.38;;
63114;SDS011;49208;50.874;6.466;2023-07-09T20:51:53;17.90;;;13.73;;
63114;SDS011;49208;50.874;6.466;2023-07-09T20:54:19;18.50;;;14.13;;
63114;SDS011;49208;50.874;6.466;2023-07-09T20:56:45;20.25;;;14.45;;
63114;SDS011;49208;50.874;6.466;2023-07-09T20:59:14;15.25;;;12.65;;
63114;SDS011;49208;50.874;6.466;2023-07-09T21:01:41;20.30;;;13.23;;
63114;SDS011;49208;50.874;6.466;2023-07-09T21:04:10;15.18;;;11.48;;
63114;SDS011;49208;50.874;6.466;2023-07-09T21:06:40;18.65;;;13.05;;
63114;SDS011;49208;50.874;6.466;2023-07-09T21:09:16;14.20;;;10.87;;
63114;SDS011;49208;50.874;6.466;2023-07-09T21:11:47;16.50;;;12.27;;
63114;SDS011;49208;50.874;6.466;2023-07-09T21:14:14;14.48;;;11.65;;
63114;SDS011;49208;50.874;6.466;2023-07-09T21:16:44;21.05;;;14.27;;
63114;SDS011;49208;50.874;6.466;2023-07-09T21:19:16;18.92;;;12.38;;
63114;SDS011;49208;50.874;6.466;2023-07-09T21:21:44;19.55;;;14.68;;
63114;SDS011;49208;50.874;6.466;2023-07-09T21:24:24;17.90;;;14.40;;
63114;SDS011;49208;50.874;6.466;2023-07-09T21:26:52;16.85;;;12.85;;
63114;SDS011;49208;50.874;6.466;2023-07-09T21:31:47;16.95;;;13.82;;
63114;SDS011;49208;50.874;6.466;2023-07-09T21:34:23;17.10;;;12.80;;
63114;SDS011;49208;50.874;6.466;2023-07-09T21:36:52;19.90;;;15.00;;
63114;SDS011;49208;50.874;6.466;2023-07-09T21:41:45;20.63;;;13.48;;
63114;SDS011;49208;50.874;6.466;2023-07-09T21:44:12;16.20;;;11.85;;
63114;SDS011;49208;50.874;6.466;2023-07-09T21:46:38;17.13;;;13.35;;
63114;SDS011;49208;50.874;6.466;2023-07-09T21:49:16;20.45;;;15.50;;
63114;SDS011;49208;50.874;6.466;2023-07-09T21:51:44;18.73;;;11.88;;
63114;SDS011;49208;50.874;6.466;2023-07-09T21:56:54;21.33;;;12.90;;
63114;SDS011;49208;50.874;6.466;2023-07-09T21:59:20;18.27;;;14.25;;
